Time;durP1;ratioP1;P1;durP2;ratioP2;P2;SDS_P1;SDS_P2;PMS_P1;PMS_P2;Temp;Humidity;BMP_temperature;BMP_pressure;BME280_temperature;BME280_humidity;BME280_pressure;Samples;Min_cycle;Max_cycle;Signal;HPM_P1;HPM_P2
2022/10/16 00:01:07;;;;;;;9.13;1.88;;;;;;;;;;4975788;28;20082;-65
2022/10/16 00:03:34;;;;;;;14.95;3.33;;;;;;;;;;4980517;28;20046;-65
2022/10/16 00:06:01;;;;;;;8.52;2.10;;;;;;;;;;4983668;28;20094;-65
2022/10/16 00:08:27;;;;;;;15.88;1.98;;;;;;;;;;4983016;28;20042;-65
2022/10/16 00:10:53;;;;;;;9.15;1.88;;;;;;;;;;4982753;28;20085;-65
2022/10/16 00:13:20;;;;;;;6.22;2.00;;;;;;;;;;4982115;28;20054;-65
2022/10/16 00:15:46;;;;;;;10.90;2.00;;;;;;;;;;4982558;28;20065;-65
2022/10/16 00:18:14;;;;;;;8.30;1.85;;;;;;;;;;4984226;28;20140;-65
2022/10/16 00:20:40;;;;;;;8.88;1.30;;;;;;;;;;4964937;28;20104;-65
2022/10/16 00:23:06;;;;;;;9.10;1.60;;;;;;;;;;4979714;28;20060;-65
2022/10/16 00:25:33;;;;;;;7.00;1.77;;;;;;;;;;4980481;28;20161;-65
2022/10/16 00:27:59;;;;;;;8.50;1.98;;;;;;;;;;4976405;28;20050;-65
2022/10/16 00:30:27;;;;;;;11.13;1.95;;;;;;;;;;4981264;28;21356;-66
2022/10/16 00:32:53;;;;;;;13.20;1.92;;;;;;;;;;4978270;28;20113;-65
2022/10/16 00:35:20;;;;;;;12.60;1.98;;;;;;;;;;4980927;28;20438;-65
2022/10/16 00:37:46;;;;;;;6.13;1.58;;;;;;;;;;4982553;28;20544;-66
2022/10/16 00:40:12;;;;;;;10.25;2.53;;;;;;;;;;4980912;28;20050;-66
2022/10/16 00:42:38;;;;;;;9.55;1.90;;;;;;;;;;4978949;28;20408;-65
2022/10/16 00:45:04;;;;;;;7.75;1.40;;;;;;;;;;4980665;28;20497;-65
2022/10/16 00:47:39;;;;;;;10.10;2.28;;;;;;;;;;4981746;28;20058;-65
2022/10/16 00:50:11;;;;;;;13.82;2.05;;;;;;;;;;4982169;28;20046;-65
2022/10/16 00:52:40;;;;;;;6.40;1.67;;;;;;;;;;4983379;28;20046;-66
2022/10/16 00:55:07;;;;;;;9.93;1.63;;;;;;;;;;4981787;28;20046;-66
2022/10/16 00:57:33;;;;;;;10.15;1.40;;;;;;;;;;4981869;28;20378;-65
2022/10/16 00:59:59;;;;;;;6.88;1.98;;;;;;;;;;4984090;28;20057;-65
2022/10/16 01:02:25;;;;;;;6.32;1.73;;;;;;;;;;4979759;28;20049;-65
2022/10/16 01:04:52;;;;;;;11.70;1.48;;;;;;;;;;4978976;28;20084;-65
2022/10/16 01:07:24;;;;;;;10.15;1.92;;;;;;;;;;4982544;28;20062;-66
2022/10/16 01:10:02;;;;;;;7.82;2.15;;;;;;;;;;4981301;28;20118;-65
2022/10/16 01:12:36;;;;;;;7.60;1.40;;;;;;;;;;4981381;28;20219;-66
2022/10/16 01:15:12;;;;;;;8.55;1.55;;;;;;;;;;4981274;28;20057;-65
2022/10/16 01:17:46;;;;;;;8.50;1.58;;;;;;;;;;4979892;28;20450;-65
2022/10/16 01:20:12;;;;;;;;;;;;;;;;;;4979820;28;20805;-66
2022/10/16 01:22:40;;;;;;;3.78;1.02;;;;;;;;;;4981574;28;20297;-66
2022/10/16 01:25:10;;;;;;;9.00;1.40;;;;;;;;;;4977579;28;20109;-65
2022/10/16 01:27:36;;;;;;;9.63;1.90;;;;;;;;;;4978439;28;20050;-65
2022/10/16 01:30:07;;;;;;;12.23;1.45;;;;;;;;;;4980020;28;20057;-65
2022/10/16 01:32:37;;;;;;;7.85;1.77;;;;;;;;;;4975918;28;20682;-65
2022/10/16 01:35:06;;;;;;;8.25;1.75;;;;;;;;;;4976263;28;20046;-66
2022/10/16 01:37:37;;;;;;;13.80;1.70;;;;;;;;;;4977249;28;20050;-66
2022/10/16 01:40:06;;;;;;;6.97;1.50;;;;;;;;;;4963010;28;20054;-65
2022/10/16 01:42:41;;;;;;;12.13;2.58;;;;;;;;;;4979278;28;20038;-66
2022/10/16 01:45:08;;;;;;;7.25;1.33;;;;;;;;;;4980403;28;20046;-65
2022/10/16 01:47:35;;;;;;;9.20;1.40;;;;;;;;;;4978076;28;20482;-66
2022/10/16 01:50:05;;;;;;;6.70;1.67;;;;;;;;;;4980214;28;20039;-65
2022/10/16 01:52:32;;;;;;;5.97;1.48;;;;;;;;;;4975547;28;20042;-65
2022/10/16 01:55:00;;;;;;;8.73;1.98;;;;;;;;;;4981027;28;20046;-65
2022/10/16 01:57:26;;;;;;;13.65;1.83;;;;;;;;;;4980377;28;20034;-65
2022/10/16 01:59:55;;;;;;;8.20;1.77;;;;;;;;;;4976993;28;20491;-65
2022/10/16 02:02:22;;;;;;;14.27;2.38;;;;;;;;;;4978327;28;20046;-65
2022/10/16 02:04:52;;;;;;;9.85;1.92;;;;;;;;;;4980678;28;20484;-65
2022/10/16 02:07:18;;;;;;;8.98;2.25;;;;;;;;;;4979770;28;20056;-65
2022/10/16 02:09:45;;;;;;;8.65;2.10;;;;;;;;;;4982004;28;20076;-65
2022/10/16 02:12:25;;;;;;;13.45;2.50;;;;;;;;;;4979298;28;20090;-65
2022/10/16 02:14:52;;;;;;;7.75;2.00;;;;;;;;;;4976139;28;20050;-65
2022/10/16 02:17:19;;;;;;;8.48;2.10;;;;;;;;;;4978397;28;20493;-65
2022/10/16 02:19:46;;;;;;;7.32;2.10;;;;;;;;;;4980586;28;20045;-65
2022/10/16 02:22:16;;;;;;;6.78;1.65;;;;;;;;;;4978377;28;20046;-65
2022/10/16 02:24:46;;;;;;;10.93;2.20;;;;;;;;;;4980609;28;20128;-65
2022/10/16 02:27:35;;;;;;;12.27;2.35;;;;;;;;;;4963110;28;20053;-66
2022/10/16 02:30:07;;;;;;;9.30;2.20;;;;;;;;;;4979648;28;20077;-65
2022/10/16 02:32:35;;;;;;;8.15;2.17;;;;;;;;;;4978884;28;20050;-65
2022/10/16 02:35:02;;;;;;;8.27;2.50;;;;;;;;;;4978000;28;20508;-65
2022/10/16 02:37:28;;;;;;;8.73;2.30;;;;;;;;;;4977679;28;20049;-65
2022/10/16 02:39:55;;;;;;;8.52;2.45;;;;;;;;;;4980409;28;20069;-65
2022/10/16 02:42:27;;;;;;;11.52;2.63;;;;;;;;;;4978891;28;20096;-65
2022/10/16 02:44:54;;;;;;;9.48;2.83;;;;;;;;;;4980711;28;20042;-65
2022/10/16 02:47:20;;;;;;;9.25;2.63;;;;;;;;;;4992778;28;20050;-65
2022/10/16 02:49:46;;;;;;;13.48;3.28;;;;;;;;;;4979843;28;20096;-65
2022/10/16 02:52:12;;;;;;;12.75;2.38;;;;;;;;;;4979228;28;20047;-65
2022/10/16 02:54:38;;;;;;;10.15;2.75;;;;;;;;;;4981251;28;20043;-65
2022/10/16 02:57:04;;;;;;;7.15;2.83;;;;;;;;;;4977503;28;20054;-65
2022/10/16 02:59:31;;;;;;;5.28;2.83;;;;;;;;;;4978396;28;20046;-65
2022/10/16 03:01:57;;;;;;;7.20;2.75;;;;;;;;;;4975542;28;20047;-65
2022/10/16 03:04:23;;;;;;;7.68;2.58;;;;;;;;;;4978933;28;20100;-65
2022/10/16 03:06:49;;;;;;;7.05;2.50;;;;;;;;;;4962974;28;20050;-65
2022/10/16 03:09:15;;;;;;;10.45;3.00;;;;;;;;;;4977010;28;20069;-65
2022/10/16 03:11:42;;;;;;;5.75;1.83;;;;;;;;;;4978347;28;20038;-65
2022/10/16 03:14:08;;;;;;;7.75;2.17;;;;;;;;;;4982417;28;20133;-65
2022/10/16 03:16:34;;;;;;;4.50;1.90;;;;;;;;;;4980051;28;20077;-65
2022/10/16 03:19:00;;;;;;;5.25;1.90;;;;;;;;;;4979758;28;20046;-65
2022/10/16 03:21:26;;;;;;;5.85;1.80;;;;;;;;;;4979047;28;20054;-65
2022/10/16 03:23:52;;;;;;;9.63;1.98;;;;;;;;;;4978964;28;20080;-65
2022/10/16 03:26:18;;;;;;;5.72;1.67;;;;;;;;;;4975764;28;20050;-65
2022/10/16 03:28:44;;;;;;;5.22;1.70;;;;;;;;;;4974320;28;20045;-66
2022/10/16 03:31:11;;;;;;;7.63;1.60;;;;;;;;;;4981368;28;20490;-65
2022/10/16 03:33:37;;;;;;;5.55;2.15;;;;;;;;;;4975922;28;20054;-65
2022/10/16 03:36:03;;;;;;;7.35;2.30;;;;;;;;;;4976150;28;20034;-65
2022/10/16 03:38:29;;;;;;;7.03;1.52;;;;;;;;;;4978220;28;20042;-65
2022/10/16 03:40:55;;;;;;;5.43;1.45;;;;;;;;;;4982722;28;20171;-65
2022/10/16 03:43:21;;;;;;;4.47;1.52;;;;;;;;;;4981523;28;20367;-65
2022/10/16 03:45:47;;;;;;;6.22;1.77;;;;;;;;;;4980573;28;20372;-65
2022/10/16 03:48:14;;;;;;;6.25;1.50;;;;;;;;;;4984723;28;20431;-65
2022/10/16 03:50:40;;;;;;;8.50;1.80;;;;;;;;;;4984708;28;20038;-66
2022/10/16 03:53:06;;;;;;;7.55;1.73;;;;;;;;;;4979567;28;20050;-66
2022/10/16 03:55:32;;;;;;;7.25;1.40;;;;;;;;;;4981755;28;20386;-66
2022/10/16 03:57:58;;;;;;;8.55;2.08;;;;;;;;;;4979908;28;20160;-66
2022/10/16 04:00:24;;;;;;;7.20;2.13;;;;;;;;;;4965580;28;20137;-65
2022/10/16 04:02:51;;;;;;;6.47;1.88;;;;;;;;;;4982971;28;20054;-65
2022/10/16 04:05:17;;;;;;;5.68;1.50;;;;;;;;;;4981014;28;20405;-66
2022/10/16 04:07:43;;;;;;;6.45;1.50;;;;;;;;;;4982929;28;20552;-65
2022/10/16 04:10:09;;;;;;;4.90;1.50;;;;;;;;;;4979646;28;20129;-65
2022/10/16 04:12:35;;;;;;;7.03;1.70;;;;;;;;;;4954616;28;20051;-65
2022/10/16 04:15:01;;;;;;;7.78;1.98;;;;;;;;;;4962596;28;20548;-65
2022/10/16 04:17:27;;;;;;;6.72;2.33;;;;;;;;;;4962661;28;20047;-65
2022/10/16 04:19:54;;;;;;;6.38;1.60;;;;;;;;;;4964687;28;20039;-65
2022/10/16 04:22:20;;;;;;;8.05;1.92;;;;;;;;;;4961650;28;20508;-65
2022/10/16 04:24:46;;;;;;;8.02;2.00;;;;;;;;;;4948704;28;20506;-65
2022/10/16 04:27:12;;;;;;;8.57;1.95;;;;;;;;;;4962343;28;20058;-65
2022/10/16 04:29:38;;;;;;;6.13;2.25;;;;;;;;;;4962142;28;20050;-65
2022/10/16 04:32:04;;;;;;;5.38;2.17;;;;;;;;;;4963547;28;20046;-65
2022/10/16 04:34:30;;;;;;;6.50;1.73;;;;;;;;;;4960229;28;20522;-65
2022/10/16 04:36:57;;;;;;;5.82;2.13;;;;;;;;;;4947459;28;20043;-65
2022/10/16 04:39:23;;;;;;;12.15;2.42;;;;;;;;;;4963765;28;20403;-65
2022/10/16 04:41:49;;;;;;;8.98;2.47;;;;;;;;;;4945544;28;20140;-66
2022/10/16 04:44:15;;;;;;;8.55;2.42;;;;;;;;;;4946219;28;20595;-65
2022/10/16 04:46:41;;;;;;;5.25;1.80;;;;;;;;;;4944707;28;20049;-65
2022/10/16 04:49:07;;;;;;;9.40;2.15;;;;;;;;;;4943001;28;20047;-65
2022/10/16 04:51:33;;;;;;;6.85;1.88;;;;;;;;;;4961778;28;20062;-65
2022/10/16 04:53:59;;;;;;;9.23;1.80;;;;;;;;;;4961423;28;20047;-65
2022/10/16 04:56:26;;;;;;;10.35;2.17;;;;;;;;;;4960509;28;20047;-65
2022/10/16 04:58:52;;;;;;;10.05;2.03;;;;;;;;;;4949033;28;20042;-65
2022/10/16 05:01:18;;;;;;;11.40;2.00;;;;;;;;;;4945841;28;20047;-65
2022/10/16 05:03:44;;;;;;;7.35;2.03;;;;;;;;;;4959963;28;20102;-65
2022/10/16 05:06:10;;;;;;;8.38;2.25;;;;;;;;;;4962867;28;20047;-65
2022/10/16 05:08:36;;;;;;;9.45;2.10;;;;;;;;;;4962936;28;20053;-66
2022/10/16 05:11:03;;;;;;;6.20;2.33;;;;;;;;;;4971182;28;20511;-66
2022/10/16 05:13:29;;;;;;;10.23;2.45;;;;;;;;;;4984284;28;20129;-65
2022/10/16 05:15:55;;;;;;;12.90;3.13;;;;;;;;;;4983396;28;20042;-65
2022/10/16 05:18:21;;;;;;;11.55;2.42;;;;;;;;;;4981262;28;20370;-65
2022/10/16 05:20:47;;;;;;;5.00;2.13;;;;;;;;;;4979633;28;20421;-66
2022/10/16 05:23:13;;;;;;;7.03;2.47;;;;;;;;;;4983949;28;20442;-65
2022/10/16 05:25:40;;;;;;;7.18;2.70;;;;;;;;;;4979890;28;20459;-65
2022/10/16 05:28:06;;;;;;;10.95;3.55;;;;;;;;;;4979072;28;20704;-65
2022/10/16 05:30:32;;;;;;;10.30;3.00;;;;;;;;;;4981097;28;20499;-65
2022/10/16 05:32:58;;;;;;;7.47;2.95;;;;;;;;;;4977290;28;20082;-65
2022/10/16 05:35:24;;;;;;;5.93;2.55;;;;;;;;;;4963502;28;20467;-65
2022/10/16 05:37:50;;;;;;;11.48;4.03;;;;;;;;;;4981817;28;20073;-65
2022/10/16 05:40:17;;;;;;;8.90;3.50;;;;;;;;;;4964371;28;20141;-65
2022/10/16 05:42:43;;;;;;;8.10;3.25;;;;;;;;;;4979175;28;20137;-65
2022/10/16 05:45:11;;;;;;;8.45;3.10;;;;;;;;;;4980319;28;20053;-65
2022/10/16 05:47:37;;;;;;;9.57;3.35;;;;;;;;;;4979220;28;20130;-65
2022/10/16 05:50:04;;;;;;;6.65;3.20;;;;;;;;;;4981606;28;20054;-65
2022/10/16 05:52:30;;;;;;;13.20;3.53;;;;;;;;;;4980721;28;20042;-65
2022/10/16 05:54:56;;;;;;;12.82;3.85;;;;;;;;;;4980617;28;20046;-65
2022/10/16 05:57:22;;;;;;;10.90;3.65;;;;;;;;;;4978056;28;20042;-65
2022/10/16 05:59:48;;;;;;;8.93;3.40;;;;;;;;;;4980998;28;20054;-65
2022/10/16 06:02:14;;;;;;;7.25;3.20;;;;;;;;;;4976341;28;20045;-65
2022/10/16 06:04:41;;;;;;;8.57;3.25;;;;;;;;;;4979037;28;20050;-65
2022/10/16 06:07:07;;;;;;;7.18;2.85;;;;;;;;;;4981228;28;20486;-65
2022/10/16 06:09:33;;;;;;;6.28;2.95;;;;;;;;;;4980592;28;20125;-66
2022/10/16 06:11:59;;;;;;;8.98;2.88;;;;;;;;;;4962169;28;20070;-65
2022/10/16 06:14:25;;;;;;;8.80;3.63;;;;;;;;;;4960212;28;20058;-64
2022/10/16 06:16:52;;;;;;;11.48;3.33;;;;;;;;;;4961961;28;20704;-65
2022/10/16 06:19:18;;;;;;;11.52;3.00;;;;;;;;;;4945640;28;20039;-65
2022/10/16 06:21:44;;;;;;;11.40;3.03;;;;;;;;;;4959422;28;20113;-65
2022/10/16 06:24:11;;;;;;;11.05;3.70;;;;;;;;;;4944187;28;20058;-65
2022/10/16 06:26:38;;;;;;;9.63;3.00;;;;;;;;;;4957582;28;20046;-65
2022/10/16 06:29:04;;;;;;;9.68;3.47;;;;;;;;;;4960648;28;20395;-65
2022/10/16 06:31:33;;;;;;;11.48;3.15;;;;;;;;;;4943397;28;20491;-65
2022/10/16 06:33:59;;;;;;;10.52;3.03;;;;;;;;;;4958880;28;20372;-65
2022/10/16 06:36:26;;;;;;;10.48;2.95;;;;;;;;;;4958711;28;20046;-65
2022/10/16 06:38:53;;;;;;;12.57;3.00;;;;;;;;;;4959442;28;20751;-65
2022/10/16 06:41:20;;;;;;;9.82;2.72;;;;;;;;;;4960544;28;20047;-65
2022/10/16 06:43:46;;;;;;;17.00;3.30;;;;;;;;;;4961043;28;20046;-65
2022/10/16 06:46:13;;;;;;;11.63;2.75;;;;;;;;;;4945299;28;20051;-65
2022/10/16 06:48:40;;;;;;;13.95;2.90;;;;;;;;;;4960367;28;20792;-65
2022/10/16 06:51:07;;;;;;;11.32;3.13;;;;;;;;;;4960989;28;20046;-65
2022/10/16 06:53:35;;;;;;;9.43;2.72;;;;;;;;;;4962149;28;20046;-65
2022/10/16 06:56:08;;;;;;;8.25;2.63;;;;;;;;;;4943708;28;20055;-65
2022/10/16 06:58:34;;;;;;;8.10;3.05;;;;;;;;;;4960409;28;20051;-65
2022/10/16 07:01:00;;;;;;;11.07;2.78;;;;;;;;;;4942833;28;20055;-66
2022/10/16 07:03:27;;;;;;;11.70;2.75;;;;;;;;;;4959502;28;21659;-65
2022/10/16 07:05:53;;;;;;;8.35;2.78;;;;;;;;;;4946251;28;20059;-65
2022/10/16 07:08:19;;;;;;;8.60;3.03;;;;;;;;;;4960118;28;20535;-65
2022/10/16 07:10:45;;;;;;;10.38;2.67;;;;;;;;;;4955933;28;20082;-66
2022/10/16 07:13:13;;;;;;;9.55;2.90;;;;;;;;;;4981792;28;20056;-65
2022/10/16 07:15:39;;;;;;;10.90;2.60;;;;;;;;;;4986526;28;20054;-66
2022/10/16 07:18:05;;;;;;;9.73;2.92;;;;;;;;;;4982576;28;20505;-65
2022/10/16 07:20:32;;;;;;;11.25;2.53;;;;;;;;;;4983599;28;20392;-65
2022/10/16 07:22:58;;;;;;;9.05;2.50;;;;;;;;;;4987070;28;20042;-65
2022/10/16 07:25:24;;;;;;;6.72;2.67;;;;;;;;;;4984784;28;20042;-65
2022/10/16 07:27:50;;;;;;;11.85;3.00;;;;;;;;;;4988775;28;20050;-65
2022/10/16 07:30:16;;;;;;;13.40;2.90;;;;;;;;;;4990890;28;20589;-65
2022/10/16 07:32:42;;;;;;;8.30;3.05;;;;;;;;;;4989240;28;20133;-65
2022/10/16 07:35:09;;;;;;;9.75;3.10;;;;;;;;;;4987007;28;20051;-65
2022/10/16 07:37:35;;;;;;;14.32;3.78;;;;;;;;;;4988451;28;20051;-65
2022/10/16 07:40:01;;;;;;;9.30;3.47;;;;;;;;;;4988430;28;20039;-65
2022/10/16 07:42:28;;;;;;;11.00;4.00;;;;;;;;;;4989241;28;20038;-65
2022/10/16 07:44:54;;;;;;;8.68;3.90;;;;;;;;;;4985307;28;20046;-64
2022/10/16 07:47:20;;;;;;;10.82;4.15;;;;;;;;;;4980788;28;20091;-65
2022/10/16 07:49:47;;;;;;;14.60;4.40;;;;;;;;;;4980813;28;20097;-64
2022/10/16 07:52:13;;;;;;;11.25;4.00;;;;;;;;;;4978114;28;20047;-64
2022/10/16 07:54:39;;;;;;;8.50;4.50;;;;;;;;;;4983072;28;20125;-65
2022/10/16 07:57:05;;;;;;;11.00;5.07;;;;;;;;;;4982101;28;20129;-64
2022/10/16 07:59:31;;;;;;;9.65;4.28;;;;;;;;;;4984945;28;20439;-64
2022/10/16 08:01:57;;;;;;;16.48;4.60;;;;;;;;;;4985316;28;20428;-65
2022/10/16 08:04:23;;;;;;;7.68;3.67;;;;;;;;;;4984805;28;20038;-65
2022/10/16 08:06:50;;;;;;;16.40;4.40;;;;;;;;;;4986145;28;21899;-64
2022/10/16 08:09:16;;;;;;;16.13;4.43;;;;;;;;;;4985830;28;20410;-65
2022/10/16 08:11:42;;;;;;;9.48;2.95;;;;;;;;;;4970891;28;20463;-65
2022/10/16 08:14:08;;;;;;;8.00;2.75;;;;;;;;;;4965733;28;20130;-65
2022/10/16 08:16:34;;;;;;;12.32;2.63;;;;;;;;;;4966459;28;20513;-64
2022/10/16 08:19:01;;;;;;;9.57;2.55;;;;;;;;;;4946644;28;20162;-65
2022/10/16 08:21:27;;;;;;;8.88;2.55;;;;;;;;;;4948117;28;20069;-65
2022/10/16 08:23:54;;;;;;;10.35;2.63;;;;;;;;;;4948365;28;20061;-65
2022/10/16 08:26:21;;;;;;;15.27;3.58;;;;;;;;;;4965675;28;20051;-64
2022/10/16 08:28:50;;;;;;;13.00;2.70;;;;;;;;;;4963741;28;20039;-65
2022/10/16 08:31:16;;;;;;;10.57;2.20;;;;;;;;;;4966121;28;20051;-65
2022/10/16 08:33:45;;;;;;;7.15;2.10;;;;;;;;;;4965839;28;20740;-65
2022/10/16 08:36:11;;;;;;;12.10;2.00;;;;;;;;;;4963116;28;20051;-65
2022/10/16 08:38:38;;;;;;;11.63;2.40;;;;;;;;;;4948030;28;20054;-65
2022/10/16 08:41:10;;;;;;;12.85;2.75;;;;;;;;;;4964940;28;20097;-64
2022/10/16 08:43:44;;;;;;;13.52;2.92;;;;;;;;;;4966952;28;20043;-64
2022/10/16 08:46:27;;;;;;;11.85;2.67;;;;;;;;;;4965046;28;20494;-64
2022/10/16 08:48:54;;;;;;;8.63;2.67;;;;;;;;;;4945412;28;20129;-65
2022/10/16 08:51:25;;;;;;;15.13;2.55;;;;;;;;;;4948539;28;20078;-65
2022/10/16 08:53:54;;;;;;;12.88;3.63;;;;;;;;;;4966943;28;20429;-65
2022/10/16 08:56:20;;;;;;;9.60;2.30;;;;;;;;;;4965082;28;20062;-65
2022/10/16 08:58:47;;;;;;;10.20;2.58;;;;;;;;;;4966407;28;20042;-64
2022/10/16 09:01:15;;;;;;;8.70;2.42;;;;;;;;;;4966434;28;20063;-64
2022/10/16 09:03:41;;;;;;;11.07;3.13;;;;;;;;;;4947347;28;20423;-64
2022/10/16 09:06:11;;;;;;;7.32;2.83;;;;;;;;;;4964789;28;20074;-64
2022/10/16 09:08:47;;;;;;;10.70;2.33;;;;;;;;;;4966015;28;20044;-64
2022/10/16 09:11:17;;;;;;;16.27;3.63;;;;;;;;;;4959754;28;20054;-64
2022/10/16 09:13:43;;;;;;;9.85;2.50;;;;;;;;;;4966256;28;20076;-64
2022/10/16 09:16:21;;;;;;;11.82;2.78;;;;;;;;;;4963831;28;20038;-64
2022/10/16 09:18:53;;;;;;;11.77;3.22;;;;;;;;;;4959475;28;20047;-64
2022/10/16 09:21:21;;;;;;;11.45;2.58;;;;;;;;;;4965604;28;20053;-64
2022/10/16 09:23:48;;;;;;;14.75;2.85;;;;;;;;;;4932386;28;20432;-64
2022/10/16 09:26:15;;;;;;;12.85;2.88;;;;;;;;;;4969153;28;20041;-64
2022/10/16 09:28:41;;;;;;;12.63;2.20;;;;;;;;;;4968165;28;20047;-64
2022/10/16 09:31:13;;;;;;;17.02;2.50;;;;;;;;;;4962000;28;20047;-64
2022/10/16 09:33:40;;;;;;;10.05;2.03;;;;;;;;;;4945616;28;20113;-64
2022/10/16 09:36:06;;;;;;;11.50;2.83;;;;;;;;;;4964918;28;20053;-63
2022/10/16 09:38:35;;;;;;;16.48;3.85;;;;;;;;;;4962974;28;20067;-64
2022/10/16 09:41:03;;;;;;;16.15;3.10;;;;;;;;;;4947181;28;20054;-64
2022/10/16 09:43:35;;;;;;;12.10;2.20;;;;;;;;;;4964226;28;20137;-64
2022/10/16 09:46:04;;;;;;;13.15;2.40;;;;;;;;;;4961722;28;20106;-64
2022/10/16 09:48:34;;;;;;;8.82;1.92;;;;;;;;;;4965125;28;20050;-64
2022/10/16 09:51:02;;;;;;;13.95;2.63;;;;;;;;;;4960787;28;20057;-64
2022/10/16 09:53:39;;;;;;;12.32;3.10;;;;;;;;;;4962032;28;20054;-64
2022/10/16 09:56:06;;;;;;;11.40;2.40;;;;;;;;;;4946967;28;20046;-64
2022/10/16 09:58:33;;;;;;;16.35;3.42;;;;;;;;;;4963433;28;20047;-64
2022/10/16 10:00:59;;;;;;;13.70;4.05;;;;;;;;;;4964320;28;20117;-64
2022/10/16 10:03:33;;;;;;;7.47;1.77;;;;;;;;;;4945804;28;20054;-64
2022/10/16 10:06:00;;;;;;;15.23;3.03;;;;;;;;;;4946112;28;20102;-64
2022/10/16 10:08:26;;;;;;;17.98;2.72;;;;;;;;;;4964467;28;20062;-64
2022/10/16 10:10:54;;;;;;;16.75;3.45;;;;;;;;;;4964462;28;20050;-64
2022/10/16 10:13:22;;;;;;;17.40;2.65;;;;;;;;;;4943515;28;20157;-64
2022/10/16 10:15:48;;;;;;;18.35;3.47;;;;;;;;;;4963956;28;20125;-64
2022/10/16 10:18:17;;;;;;;16.08;2.60;;;;;;;;;;4945659;28;20074;-64
2022/10/16 10:20:43;;;;;;;16.02;3.53;;;;;;;;;;4943819;28;20046;-63
2022/10/16 10:23:22;;;;;;;14.63;2.20;;;;;;;;;;4960200;28;20110;-64
2022/10/16 10:25:53;;;;;;;11.43;2.35;;;;;;;;;;4947693;28;20055;-64
2022/10/16 10:28:25;;;;;;;18.98;3.47;;;;;;;;;;4962221;28;20046;-64
2022/10/16 10:30:52;;;;;;;25.75;2.55;;;;;;;;;;4964026;28;20057;-64
2022/10/16 10:33:30;;;;;;;18.58;3.80;;;;;;;;;;4963181;28;20042;-64
2022/10/16 10:36:02;;;;;;;23.13;4.93;;;;;;;;;;4961419;28;20401;-62
2022/10/16 10:38:29;;;;;;;33.38;4.72;;;;;;;;;;4944732;28;20038;-63
2022/10/16 10:41:09;;;;;;;34.40;5.20;;;;;;;;;;4960145;28;20335;-63
2022/10/16 10:43:47;;;;;;;32.15;9.38;;;;;;;;;;4963356;28;20129;-63
2022/10/16 10:46:19;;;;;;;33.28;9.05;;;;;;;;;;4961430;28;20042;-63
2022/10/16 10:48:53;;;;;;;35.92;11.38;;;;;;;;;;4962560;28;20050;-62
2022/10/16 10:51:23;;;;;;;24.27;5.53;;;;;;;;;;4963809;28;20125;-62
2022/10/16 10:53:52;;;;;;;19.23;3.95;;;;;;;;;;4963685;28;20467;-62
2022/10/16 10:56:36;;;;;;;21.52;4.30;;;;;;;;;;4962744;28;20494;-62
2022/10/16 10:59:16;;;;;;;16.42;3.35;;;;;;;;;;4964273;28;20521;-62
2022/10/16 11:01:51;;;;;;;22.00;4.45;;;;;;;;;;4946188;28;20517;-63
2022/10/16 11:04:23;;;;;;;17.02;3.17;;;;;;;;;;4945312;28;20043;-63
2022/10/16 11:06:53;;;;;;;17.70;3.75;;;;;;;;;;4962295;28;20039;-62
2022/10/16 11:09:22;;;;;;;12.85;3.10;;;;;;;;;;4945462;28;20050;-62
2022/10/16 11:11:53;;;;;;;12.38;2.83;;;;;;;;;;4978712;28;20054;-62
2022/10/16 11:14:22;;;;;;;14.82;3.25;;;;;;;;;;4979639;28;20137;-62
2022/10/16 11:17:01;;;;;;;18.13;3.15;;;;;;;;;;4981390;28;20046;-62
2022/10/16 11:19:35;;;;;;;14.95;3.05;;;;;;;;;;4980097;28;20215;-63
2022/10/16 11:22:05;;;;;;;13.95;3.25;;;;;;;;;;4982443;28;20046;-62
2022/10/16 11:24:43;;;;;;;18.80;3.05;;;;;;;;;;4981369;28;20122;-62
2022/10/16 11:27:12;;;;;;;14.93;3.38;;;;;;;;;;4982594;28;20585;-62
2022/10/16 11:29:44;;;;;;;13.65;3.30;;;;;;;;;;4981790;28;20050;-62
2022/10/16 11:32:22;;;;;;;15.00;4.07;;;;;;;;;;4982677;28;20038;-62
2022/10/16 11:34:51;;;;;;;10.80;2.17;;;;;;;;;;4979992;28;20125;-62
2022/10/16 11:37:19;;;;;;;12.73;2.25;;;;;;;;;;4982727;28;20160;-63
2022/10/16 11:39:47;;;;;;;21.73;5.45;;;;;;;;;;4981626;28;20058;-63
2022/10/16 11:42:19;;;;;;;15.85;2.83;;;;;;;;;;4981118;28;20098;-63
2022/10/16 11:45:04;;;;;;;13.90;4.20;;;;;;;;;;4979756;28;20034;-63
2022/10/16 11:47:43;;;;;;;13.90;3.00;;;;;;;;;;4983360;28;20057;-63
2022/10/16 11:50:15;;;;;;;9.70;1.90;;;;;;;;;;4985526;28;20121;-63
2022/10/16 11:52:49;;;;;;;19.73;3.70;;;;;;;;;;4983302;28;20343;-63
2022/10/16 11:55:23;;;;;;;11.35;2.13;;;;;;;;;;4980458;28;20067;-63
2022/10/16 11:57:52;;;;;;;20.00;3.70;;;;;;;;;;4980036;28;20413;-62
2022/10/16 12:00:26;;;;;;;17.10;2.83;;;;;;;;;;4986734;28;20100;-63
2022/10/16 12:02:58;;;;;;;14.82;3.25;;;;;;;;;;4986696;28;20125;-62
2022/10/16 12:05:25;;;;;;;12.05;2.28;;;;;;;;;;4989441;28;20332;-62
2022/10/16 12:08:02;;;;;;;20.38;3.67;;;;;;;;;;4987883;28;20046;-63
2022/10/16 12:10:31;;;;;;;11.68;2.58;;;;;;;;;;4986175;28;20509;-63
2022/10/16 12:12:57;;;;;;;15.07;2.58;;;;;;;;;;4978244;28;20081;-63
2022/10/16 12:15:28;;;;;;;10.65;1.83;;;;;;;;;;4997331;28;20053;-63
2022/10/16 12:17:55;;;;;;;12.35;2.45;;;;;;;;;;4985880;28;20053;-63
2022/10/16 12:20:25;;;;;;;11.70;2.53;;;;;;;;;;4983781;28;20632;-63
2022/10/16 12:22:55;;;;;;;14.30;2.70;;;;;;;;;;4984605;28;20046;-63
2022/10/16 12:25:21;;;;;;;16.35;2.80;;;;;;;;;;4984447;28;20877;-64
2022/10/16 12:27:54;;;;;;;12.35;2.50;;;;;;;;;;4983770;28;20042;-64
2022/10/16 12:30:20;;;;;;;;;;;;;;;;;;4984647;28;20086;-63
2022/10/16 12:32:53;;;;;;;10.40;2.50;;;;;;;;;;4984618;28;19933;-64
2022/10/16 12:35:21;;;;;;;26.88;5.00;;;;;;;;;;4983692;28;20074;-64
2022/10/16 12:37:47;;;;;;;10.77;2.67;;;;;;;;;;4985060;28;20042;-64
2022/10/16 12:40:15;;;;;;;9.57;1.85;;;;;;;;;;4985028;28;20076;-64
2022/10/16 12:42:41;;;;;;;11.05;2.78;;;;;;;;;;4985501;28;20049;-64
2022/10/16 12:45:24;;;;;;;10.20;2.20;;;;;;;;;;4981700;28;20057;-63
2022/10/16 12:47:53;;;;;;;13.88;2.72;;;;;;;;;;4985247;28;20060;-64
2022/10/16 12:50:26;;;;;;;12.10;2.67;;;;;;;;;;4982920;28;20043;-64
2022/10/16 12:52:52;;;;;;;13.48;2.83;;;;;;;;;;4982937;28;20510;-63
2022/10/16 12:55:19;;;;;;;12.82;2.70;;;;;;;;;;4983213;28;20050;-64
2022/10/16 12:57:48;;;;;;;11.40;2.42;;;;;;;;;;4984479;28;20060;-64
2022/10/16 13:00:21;;;;;;;11.68;2.40;;;;;;;;;;4984712;28;20730;-63
2022/10/16 13:03:03;;;;;;;15.27;3.03;;;;;;;;;;4982807;28;20121;-64
2022/10/16 13:05:35;;;;;;;11.23;2.45;;;;;;;;;;4983573;28;20042;-64
2022/10/16 13:08:01;;;;;;;11.90;2.50;;;;;;;;;;4984929;28;20133;-65
2022/10/16 13:10:32;;;;;;;15.98;3.17;;;;;;;;;;4978841;28;20058;-64
2022/10/16 13:13:17;;;;;;;16.42;3.00;;;;;;;;;;4983595;28;20129;-65
2022/10/16 13:15:52;;;;;;;11.02;2.28;;;;;;;;;;4980536;28;20057;-64
2022/10/16 13:18:22;;;;;;;15.32;2.72;;;;;;;;;;4981765;28;20039;-65
2022/10/16 13:21:04;;;;;;;12.38;3.50;;;;;;;;;;4984865;28;20053;-65
2022/10/16 13:23:37;;;;;;;13.77;2.55;;;;;;;;;;4983341;28;20050;-64
2022/10/16 13:26:20;;;;;;;10.85;1.95;;;;;;;;;;4983052;28;20035;-64
2022/10/16 13:28:46;;;;;;;17.65;2.80;;;;;;;;;;4986779;28;20042;-65
2022/10/16 13:31:15;;;;;;;17.92;3.22;;;;;;;;;;4980580;28;20050;-64
2022/10/16 13:33:43;;;;;;;15.50;2.13;;;;;;;;;;4981701;28;20078;-64
2022/10/16 13:36:25;;;;;;;14.85;2.40;;;;;;;;;;4982001;28;20038;-64
2022/10/16 13:39:11;;;;;;;13.43;2.47;;;;;;;;;;4979843;28;20057;-64
2022/10/16 13:41:38;;;;;;;14.07;2.35;;;;;;;;;;4982189;28;20034;-64
2022/10/16 13:44:04;;;;;;;11.13;2.63;;;;;;;;;;4981019;28;20050;-65
2022/10/16 13:46:34;;;;;;;14.30;2.83;;;;;;;;;;4981627;28;20125;-64
2022/10/16 13:49:01;;;;;;;25.73;4.15;;;;;;;;;;4984024;28;20124;-64
2022/10/16 13:51:28;;;;;;;20.42;3.45;;;;;;;;;;4982896;28;20105;-64
2022/10/16 13:53:56;;;;;;;25.65;4.45;;;;;;;;;;4982713;28;20105;-65
2022/10/16 13:56:23;;;;;;;14.27;2.10;;;;;;;;;;4981859;28;20046;-64
2022/10/16 13:59:00;;;;;;;13.95;2.70;;;;;;;;;;4981166;28;20049;-64
2022/10/16 14:01:28;;;;;;;16.45;3.25;;;;;;;;;;4995337;28;20077;-64
2022/10/16 14:04:01;;;;;;;11.00;2.55;;;;;;;;;;4983110;28;20046;-66
2022/10/16 14:06:27;;;;;;;16.63;3.53;;;;;;;;;;4983760;28;20145;-64
2022/10/16 14:08:58;;;;;;;17.17;3.08;;;;;;;;;;4982518;28;20065;-64
2022/10/16 14:11:25;;;;;;;18.70;2.72;;;;;;;;;;4981952;28;20052;-64
2022/10/16 14:13:52;;;;;;;13.27;2.63;;;;;;;;;;4980664;28;20070;-64
2022/10/16 14:16:20;;;;;;;25.90;9.90;;;;;;;;;;4983231;28;20043;-64
2022/10/16 14:18:49;;;;;;;15.43;2.97;;;;;;;;;;4982527;28;20693;-64
2022/10/16 14:21:16;;;;;;;12.32;2.78;;;;;;;;;;4983215;28;20493;-64
2022/10/16 14:23:43;;;;;;;14.07;4.03;;;;;;;;;;4980139;28;20050;-64
2022/10/16 14:26:09;;;;;;;16.67;2.85;;;;;;;;;;4981667;28;20655;-64
2022/10/16 14:28:40;;;;;;;12.65;2.30;;;;;;;;;;4981349;28;20054;-64
2022/10/16 14:31:24;;;;;;;13.48;2.83;;;;;;;;;;4982322;28;20067;-64
2022/10/16 14:33:50;;;;;;;11.75;2.60;;;;;;;;;;4981880;28;20092;-64
2022/10/16 14:36:18;;;;;;;13.68;2.45;;;;;;;;;;4966268;28;20046;-77
2022/10/16 14:38:50;;;;;;;14.23;3.42;;;;;;;;;;4983464;28;20049;-64
2022/10/16 14:41:20;;;;;;;12.88;2.30;;;;;;;;;;4982552;28;20411;-66
2022/10/16 14:43:51;;;;;;;13.63;2.20;;;;;;;;;;4980228;28;20109;-65